createdAt,value
2019-05-07T00:04:54.154Z,7.58
2019-05-07T00:10:03.435Z,9.26
2019-05-07T00:15:12.632Z,8.95
2019-05-07T00:20:23.101Z,8.57
2019-05-07T00:25:32.553Z,8.10
2019-05-07T00:30:38.867Z,9.42
2019-05-07T00:35:47.946Z,10.96
2019-05-07T00:40:57.078Z,11.53
2019-05-07T00:46:06.139Z,12.15
2019-05-07T00:51:15.268Z,12.19
2019-05-07T00:56:24.351Z,12.95
2019-05-07T01:01:33.595Z,13.01
2019-05-07T01:06:42.702Z,13.59
2019-05-07T01:11:52.500Z,12.69
2019-05-07T01:17:02.432Z,12.83
2019-05-07T01:22:09.351Z,13.12
2019-05-07T01:27:18.462Z,13.36
2019-05-07T01:32:27.652Z,12.63
2019-05-07T01:37:36.735Z,10.93
2019-05-07T01:42:45.944Z,12.07
2019-05-07T01:47:55.143Z,11.39
2019-05-07T01:53:04.355Z,15.24
2019-05-07T01:58:13.451Z,13.86
2019-05-07T02:03:23.131Z,16.29
2019-05-07T02:08:32.880Z,14.95
2019-05-07T02:13:41.898Z,16.32
2019-05-07T02:18:48.612Z,15.40
2019-05-07T02:23:57.726Z,14.62
2019-05-07T02:29:06.846Z,13.12
2019-05-07T02:34:16.122Z,13.78
2019-05-07T02:39:25.195Z,14.23
2019-05-07T02:44:34.383Z,16.14
2019-05-07T02:49:44.036Z,16.48
2019-05-07T02:54:53.905Z,16.16
2019-05-07T03:00:04.028Z,14.83
2019-05-07T03:05:09.584Z,14.62
2019-05-07T03:10:18.649Z,15.15
2019-05-07T03:15:27.775Z,18.13
2019-05-07T03:20:36.871Z,16.54
2019-05-07T03:25:46.076Z,18.41
2019-05-07T03:30:56.614Z,17.45
2019-05-07T03:36:07.272Z,19.73
2019-05-07T03:41:12.920Z,20.10
2019-05-07T03:46:23.543Z,19.43
2019-05-07T03:51:32.785Z,19.51
2019-05-07T03:56:38.548Z,17.36
2019-05-07T04:01:47.623Z,18.34
2019-05-07T04:06:56.788Z,17.44
2019-05-07T04:12:05.844Z,17.63
2019-05-07T04:17:22.285Z,15.79
2019-05-07T04:22:26.584Z,16.79
2019-05-07T04:27:33.228Z,17.59
2019-05-07T04:32:43.340Z,14.50
2019-05-07T04:37:49.783Z,17.92
2019-05-07T04:42:58.926Z,16.67
2019-05-07T04:48:08.127Z,17.40
2019-05-07T04:53:17.215Z,12.42
2019-05-07T04:58:26.827Z,14.28
2019-05-07T05:03:38.607Z,13.38
2019-05-07T05:08:43.843Z,13.13
2019-05-07T05:13:53.327Z,14.53
2019-05-07T05:19:02.477Z,14.01
2019-05-07T05:24:10.082Z,14.45
2019-05-07T05:29:22.755Z,13.74
2019-05-07T05:34:19.419Z,13.39
2019-05-07T05:39:28.585Z,13.93
2019-05-07T05:44:37.700Z,12.66
2019-05-07T05:49:46.859Z,13.38
2019-05-07T05:54:58.949Z,13.29
2019-05-07T05:59:58.159Z,11.83
2019-05-07T06:05:07.270Z,12.50
2019-05-07T06:10:16.447Z,12.92
2019-05-07T06:15:28.011Z,13.45
2019-05-07T06:20:27.311Z,13.73
2019-05-07T06:25:38.682Z,12.32
2019-05-07T06:30:41.667Z,14.90
2019-05-07T06:35:42.927Z,15.12
2019-05-07T06:40:38.588Z,17.19
2019-05-07T06:45:47.783Z,15.75
2019-05-07T06:50:56.957Z,15.57
2019-05-07T06:56:06.199Z,17.35
2019-05-07T07:01:15.341Z,14.98
2019-05-07T07:06:24.442Z,14.89
2019-05-07T07:11:33.744Z,16.53
2019-05-07T07:16:42.795Z,19.70
2019-05-07T07:21:52.948Z,18.10
2019-05-07T07:27:02.491Z,19.30
2019-05-07T07:32:12.653Z,14.55
2019-05-07T07:37:19.252Z,13.63
2019-05-07T07:42:28.499Z,16.82
2019-05-07T07:47:37.681Z,16.32
2019-05-07T07:52:46.868Z,16.31
2019-05-07T07:57:55.933Z,17.57
2019-05-07T08:03:05.115Z,17.90
2019-05-07T08:08:14.203Z,18.90
2019-05-07T08:13:23.478Z,19.62
2019-05-07T08:18:32.854Z,19.70
2019-05-07T08:23:42.392Z,20.58
2019-05-07T08:28:52.267Z,19.28
2019-05-07T08:33:59.335Z,20.54
2019-05-07T08:39:08.407Z,16.23
2019-05-07T08:44:17.699Z,20.21
2019-05-07T08:49:36.756Z,19.13
2019-05-07T08:54:35.503Z,21.68
2019-05-07T08:59:57.614Z,22.03
2019-05-07T09:04:53.348Z,20.95
2019-05-07T09:10:02.672Z,20.22
2019-05-07T09:15:12.488Z,18.21
2019-05-07T09:20:20.238Z,17.74
2019-05-07T09:25:29.517Z,17.33
2019-05-07T09:30:38.599Z,17.29
2019-05-07T09:35:47.936Z,17.31
2019-05-07T09:40:57.182Z,16.45
2019-05-07T09:46:06.323Z,16.25
2019-05-07T09:51:15.386Z,18.36
2019-05-07T09:56:24.608Z,19.80
2019-05-07T10:01:33.694Z,18.39
2019-05-07T10:06:42.802Z,20.81
2019-05-07T10:11:52.446Z,19.84
2019-05-07T10:17:02.616Z,22.22
2019-05-07T10:22:09.283Z,22.65
2019-05-07T10:27:18.581Z,22.92
2019-05-07T10:32:27.722Z,19.07
2019-05-07T10:37:37.187Z,15.36
2019-05-07T10:42:46.286Z,18.10
2019-05-07T10:47:55.615Z,15.07
2019-05-07T10:53:04.730Z,18.73
2019-05-07T10:58:14.006Z,14.96
2019-05-07T11:03:23.121Z,18.79
2019-05-07T11:08:32.897Z,18.21
2019-05-07T11:13:42.200Z,20.76
2019-05-07T11:18:51.613Z,17.82
2019-05-07T11:23:58.299Z,22.04
2019-05-07T11:29:07.542Z,20.15
2019-05-07T11:34:16.638Z,18.90
2019-05-07T11:39:25.927Z,21.12
2019-05-07T11:44:35.003Z,18.70
2019-05-07T11:49:44.179Z,19.20
2019-05-07T11:54:53.273Z,22.47
2019-05-07T12:00:02.896Z,19.54
2019-05-07T12:05:12.185Z,17.23
2019-05-07T12:10:22.264Z,17.42
2019-05-07T12:15:29.851Z,19.88
2019-05-07T12:20:39.111Z,17.33
2019-05-07T12:25:48.182Z,17.87
2019-05-07T12:30:57.357Z,16.82
2019-05-07T12:36:07.682Z,18.05
2019-05-07T12:41:06.790Z,18.57
2019-05-07T12:46:15.867Z,17.91
2019-05-07T12:51:33.525Z,16.49
2019-05-07T12:56:33.630Z,17.14
2019-05-07T13:01:45.409Z,16.52
2019-05-07T13:06:44.457Z,19.05
2019-05-07T13:11:53.584Z,23.93
2019-05-07T13:17:02.845Z,24.12
2019-05-07T13:22:12.984Z,23.95
2019-05-07T13:27:20.465Z,23.99
2019-05-07T13:32:29.672Z,19.74
2019-05-07T13:37:38.314Z,20.64
2019-05-07T13:42:47.562Z,17.91
2019-05-07T13:47:56.703Z,20.04
2019-05-07T13:53:05.961Z,21.49
2019-05-07T13:58:15.044Z,16.75
2019-05-07T14:03:24.393Z,17.74
2019-05-07T14:08:33.571Z,19.01
2019-05-07T14:13:43.639Z,18.92
2019-05-07T14:18:51.359Z,17.65
2019-05-07T14:24:00.540Z,18.51
2019-05-07T14:29:09.622Z,16.60
2019-05-07T14:34:18.869Z,14.57
2019-05-07T14:39:27.999Z,11.69
2019-05-07T14:44:37.310Z,11.64
2019-05-07T14:49:46.411Z,7.48
2019-05-07T14:54:55.619Z,8.38
2019-05-07T15:00:04.746Z,20.89
2019-05-07T15:05:14.206Z,10.17
2019-05-07T15:10:23.495Z,11.36
2019-05-07T15:15:32.759Z,9.45
2019-05-07T15:20:42.024Z,9.30
2019-05-07T15:25:51.678Z,9.82
2019-05-07T15:30:59.875Z,8.45
2019-05-07T15:36:09.093Z,10.43
2019-05-07T15:41:18.183Z,13.93
2019-05-07T15:46:27.574Z,11.74
2019-05-07T15:51:36.666Z,10.91
2019-05-07T15:56:45.912Z,10.95
2019-05-07T16:01:55.158Z,10.00
2019-05-07T16:07:05.097Z,11.16
2019-05-07T16:12:12.970Z,10.53
2019-05-07T16:17:24.525Z,11.88
2019-05-07T16:22:32.633Z,16.01
2019-05-07T16:27:39.510Z,10.55
2019-05-07T16:32:47.135Z,9.87
2019-05-07T16:37:56.483Z,10.45
2019-05-07T16:43:05.742Z,11.66
2019-05-07T16:48:15.136Z,11.84
2019-05-07T16:53:29.701Z,11.47
2019-05-07T16:58:35.100Z,9.57
2019-05-07T17:03:42.684Z,11.02
2019-05-07T17:08:51.684Z,12.85
2019-05-07T17:13:59.370Z,14.20
2019-05-07T17:19:08.670Z,12.21
2019-05-07T17:24:17.845Z,11.80
2019-05-07T17:29:26.992Z,9.01
2019-05-07T17:34:36.116Z,13.15
2019-05-07T17:39:45.316Z,12.58
2019-05-07T17:44:54.418Z,14.58
2019-05-07T17:50:03.583Z,11.52
2019-05-07T17:55:13.081Z,13.79
2019-05-07T18:00:22.089Z,11.41
2019-05-07T18:05:31.687Z,14.48
2019-05-07T18:10:38.788Z,15.14
2019-05-07T18:15:47.847Z,17.11
2019-05-07T18:20:57.027Z,15.93
2019-05-07T18:26:06.147Z,18.28
2019-05-07T18:31:15.920Z,17.37
2019-05-07T18:36:23.959Z,19.37
2019-05-07T18:41:33.215Z,15.26
2019-05-07T18:46:42.331Z,17.15
2019-05-07T18:51:52.190Z,17.97
2019-05-07T18:57:02.163Z,17.87
2019-05-07T19:02:09.057Z,18.28
2019-05-07T19:07:18.190Z,18.65
2019-05-07T19:12:27.473Z,18.68
2019-05-07T19:17:36.503Z,17.83
2019-05-07T19:22:45.622Z,20.78
2019-05-07T19:27:55.946Z,19.93
2019-05-07T19:33:03.450Z,19.51
2019-05-07T19:38:12.547Z,19.94
2019-05-07T19:43:21.767Z,18.81
2019-05-07T19:48:32.331Z,19.73
2019-05-07T19:53:41.719Z,17.81
2019-05-07T19:58:48.389Z,22.59
2019-05-07T20:03:57.571Z,21.60
2019-05-07T20:09:12.171Z,21.59
2019-05-07T20:14:15.589Z,23.06
2019-05-07T20:19:24.675Z,21.82
2019-05-07T20:24:33.832Z,22.64
2019-05-07T20:29:42.910Z,22.53
2019-05-07T20:34:52.173Z,21.46
2019-05-07T20:40:03.038Z,21.60
2019-05-07T20:45:12.111Z,22.77
2019-05-07T20:50:18.631Z,19.48
2019-05-07T20:55:30.934Z,20.97
2019-05-07T21:00:36.542Z,20.16
2019-05-07T21:05:48.676Z,22.32
2019-05-07T21:10:47.744Z,21.36
2019-05-07T21:15:56.881Z,21.53
2019-05-07T21:21:05.943Z,21.94
2019-05-07T21:26:19.255Z,21.69
2019-05-07T21:31:18.335Z,21.90
2019-05-07T21:36:27.671Z,21.39
2019-05-07T21:41:36.830Z,19.07
2019-05-07T21:46:47.894Z,21.31
2019-05-07T21:51:46.953Z,19.11
2019-05-07T21:56:56.132Z,19.93
2019-05-07T22:02:05.229Z,19.47
2019-05-07T22:07:14.532Z,21.42
2019-05-07T22:12:23.626Z,18.98
2019-05-07T22:17:32.794Z,20.25
2019-05-07T22:22:42.764Z,21.32
2019-05-07T22:27:52.924Z,21.26
2019-05-07T22:32:59.574Z,21.88
2019-05-07T22:38:08.711Z,20.50
2019-05-07T22:43:17.797Z,19.90
2019-05-07T22:48:26.919Z,20.50
2019-05-07T22:53:36.000Z,21.90
2019-05-07T22:58:45.257Z,21.51
2019-05-07T23:03:54.358Z,18.63
2019-05-07T23:09:03.580Z,21.80
2019-05-07T23:14:12.687Z,21.35
2019-05-07T23:19:22.196Z,21.38
2019-05-07T23:24:31.870Z,21.00
2019-05-07T23:29:39.138Z,20.85
2019-05-07T23:34:48.275Z,21.52
2019-05-07T23:39:57.438Z,20.85
2019-05-07T23:45:09.584Z,22.44
2019-05-07T23:50:08.834Z,23.00
2019-05-07T23:55:17.926Z,22.22
